sensor_id;sensor_type;location;lat;lon;timestamp;pressure;altitude;pressure_sealevel;temperature
70668;BMP280;58242;51.250;-1.118;2022-12-28T00:01:17;99700.50;;;15.42
70668;BMP280;58242;51.250;-1.118;2022-12-28T00:03:43;99692.78;;;15.40
70668;BMP280;58242;51.250;-1.118;2022-12-28T00:06:09;99695.88;;;15.42
70668;BMP280;58242;51.250;-1.118;2022-12-28T00:08:34;99702.84;;;15.43
70668;BMP280;58242;51.250;-1.118;2022-12-28T00:11:02;99704.41;;;15.44
70668;BMP280;58242;51.250;-1.118;2022-12-28T00:13:29;99695.16;;;15.45
70668;BMP280;58242;51.250;-1.118;2022-12-28T00:15:55;99698.28;;;15.47
70668;BMP280;58242;51.250;-1.118;2022-12-28T00:18:20;99711.41;;;15.49
70668;BMP280;58242;51.250;-1.118;2022-12-28T00:20:57;99700.25;;;15.50
70668;BMP280;58242;51.250;-1.118;2022-12-28T00:23:24;99702.97;;;15.54
70668;BMP280;58242;51.250;-1.118;2022-12-28T00:25:50;99705.31;;;15.55
70668;BMP280;58242;51.250;-1.118;2022-12-28T00:28:15;99699.94;;;15.55
70668;BMP280;58242;51.250;-1.118;2022-12-28T00:30:41;99696.09;;;15.56
70668;BMP280;58242;51.250;-1.118;2022-12-28T00:33:06;99697.63;;;15.57
70668;BMP280;58242;51.250;-1.118;2022-12-28T00:35:32;99701.91;;;15.58
70668;BMP280;58242;51.250;-1.118;2022-12-28T00:37:57;99691.13;;;15.58
70668;BMP280;58242;51.250;-1.118;2022-12-28T00:40:22;99681.91;;;15.59
70668;BMP280;58242;51.250;-1.118;2022-12-28T00:42:47;99683.84;;;15.62
70668;BMP280;58242;51.250;-1.118;2022-12-28T00:45:13;99683.50;;;15.63
70668;BMP280;58242;51.250;-1.118;2022-12-28T00:47:38;99675.44;;;15.63
70668;BMP280;58242;51.250;-1.118;2022-12-28T00:50:04;99678.53;;;15.65
70668;BMP280;58242;51.250;-1.118;2022-12-28T00:52:29;99680.06;;;15.66
70668;BMP280;58242;51.250;-1.118;2022-12-28T00:54:55;99673.56;;;15.67
70668;BMP280;58242;51.250;-1.118;2022-12-28T00:57:20;99673.16;;;15.69
70668;BMP280;58242;51.250;-1.118;2022-12-28T00:59:45;99681.31;;;15.72
70668;BMP280;58242;51.250;-1.118;2022-12-28T01:02:11;99669.38;;;15.73
70668;BMP280;58242;51.250;-1.118;2022-12-28T01:04:36;99669.81;;;15.75
70668;BMP280;58242;51.250;-1.118;2022-12-28T01:07:01;99672.50;;;15.75
70668;BMP280;58242;51.250;-1.118;2022-12-28T01:09:27;99660.94;;;15.74
70668;BMP280;58242;51.250;-1.118;2022-12-28T01:11:52;99680.22;;;15.76
70668;BMP280;58242;51.250;-1.118;2022-12-28T01:14:17;99677.50;;;15.76
70668;BMP280;58242;51.250;-1.118;2022-12-28T01:16:43;99658.28;;;15.78
70668;BMP280;58242;51.250;-1.118;2022-12-28T01:19:09;99656.78;;;15.80
70668;BMP280;58242;51.250;-1.118;2022-12-28T01:21:36;99654.88;;;15.81
70668;BMP280;58242;51.250;-1.118;2022-12-28T01:24:03;99650.66;;;15.83
70668;BMP280;58242;51.250;-1.118;2022-12-28T01:26:28;99644.91;;;15.85
70668;BMP280;58242;51.250;-1.118;2022-12-28T01:28:55;99641.84;;;15.86
70668;BMP280;58242;51.250;-1.118;2022-12-28T01:31:20;99648.78;;;15.87
70668;BMP280;58242;51.250;-1.118;2022-12-28T01:33:47;99649.19;;;15.89
70668;BMP280;58242;51.250;-1.118;2022-12-28T01:36:14;99645.72;;;15.89
70668;BMP280;58242;51.250;-1.118;2022-12-28T01:38:40;99641.91;;;15.90
70668;BMP280;58242;51.250;-1.118;2022-12-28T01:41:07;99656.91;;;15.91
70668;BMP280;58242;51.250;-1.118;2022-12-28T01:46:07;99646.91;;;15.91
70668;BMP280;58242;51.250;-1.118;2022-12-28T01:48:34;99644.19;;;15.91
70668;BMP280;58242;51.250;-1.118;2022-12-28T01:51:01;99651.16;;;15.92
70668;BMP280;58242;51.250;-1.118;2022-12-28T01:53:27;99657.34;;;15.92
70668;BMP280;58242;51.250;-1.118;2022-12-28T01:55:52;99653.06;;;15.91
70668;BMP280;58242;51.250;-1.118;2022-12-28T01:58:24;99656.53;;;15.92
70668;BMP280;58242;51.250;-1.118;2022-12-28T02:00:51;99645.75;;;15.92
70668;BMP280;58242;51.250;-1.118;2022-12-28T02:03:19;99648.47;;;15.92
70668;BMP280;58242;51.250;-1.118;2022-12-28T02:05:48;99658.13;;;15.93
70668;BMP280;58242;51.250;-1.118;2022-12-28T02:10:43;99652.34;;;15.94
70668;BMP280;58242;51.250;-1.118;2022-12-28T02:13:10;99656.63;;;15.95
70668;BMP280;58242;51.250;-1.118;2022-12-28T02:15:35;99660.88;;;15.96
70668;BMP280;58242;51.250;-1.118;2022-12-28T02:18:01;99657.81;;;15.98
70668;BMP280;58242;51.250;-1.118;2022-12-28T02:20:35;99655.88;;;15.98
70668;BMP280;58242;51.250;-1.118;2022-12-28T02:34:32;99640.81;;;15.94
70668;BMP280;58242;51.250;-1.118;2022-12-28T02:37:10;99633.13;;;15.96
70668;BMP280;58242;51.250;-1.118;2022-12-28T02:39:42;99634.31;;;15.98
70668;BMP280;58242;51.250;-1.118;2022-12-28T02:42:08;99635.88;;;15.99
70668;BMP280;58242;51.250;-1.118;2022-12-28T02:44:35;99626.69;;;16.04
70668;BMP280;58242;51.250;-1.118;2022-12-28T02:47:19;99615.91;;;16.04
70668;BMP280;58242;51.250;-1.118;2022-12-28T02:50:05;99622.84;;;16.05
70668;BMP280;58242;51.250;-1.118;2022-12-28T03:07:07;99596.34;;;16.13
70668;BMP280;58242;51.250;-1.118;2022-12-28T03:10:20;99595.19;;;16.11
70668;BMP280;58242;51.250;-1.118;2022-12-28T03:12:55;99589.00;;;16.10
70668;BMP280;58242;51.250;-1.118;2022-12-28T03:15:26;99595.97;;;16.11
70668;BMP280;58242;51.250;-1.118;2022-12-28T03:17:57;99587.91;;;16.15
70668;BMP280;58242;51.250;-1.118;2022-12-28T03:20:42;99578.19;;;16.07
70668;BMP280;58242;51.250;-1.118;2022-12-28T03:23:27;99572.81;;;16.10
70668;BMP280;58242;51.250;-1.118;2022-12-28T03:26:11;99565.94;;;16.13
70668;BMP280;58242;51.250;-1.118;2022-12-28T03:28:58;99570.94;;;16.14
70668;BMP280;58242;51.250;-1.118;2022-12-28T03:31:43;99555.53;;;16.15
70668;BMP280;58242;51.250;-1.118;2022-12-28T03:34:09;99556.31;;;16.15
70668;BMP280;58242;51.250;-1.118;2022-12-28T03:39:35;99539.78;;;16.17
70668;BMP280;58242;51.250;-1.118;2022-12-28T03:42:36;99546.69;;;16.18
70668;BMP280;58242;51.250;-1.118;2022-12-28T03:45:30;99546.34;;;16.19
70668;BMP280;58242;51.250;-1.118;2022-12-28T03:48:00;99539.41;;;16.22
70668;BMP280;58242;51.250;-1.118;2022-12-28T03:50:26;99549.06;;;16.23
70668;BMP280;58242;51.250;-1.118;2022-12-28T03:52:52;99532.53;;;16.24
70668;BMP280;58242;51.250;-1.118;2022-12-28T03:55:18;99529.44;;;16.26
70668;BMP280;58242;51.250;-1.118;2022-12-28T03:57:43;99522.91;;;16.26
70668;BMP280;58242;51.250;-1.118;2022-12-28T04:00:09;99532.91;;;16.26
70668;BMP280;58242;51.250;-1.118;2022-12-28T04:02:35;99524.81;;;16.26
70668;BMP280;58242;51.250;-1.118;2022-12-28T04:05:01;99512.13;;;16.26
70668;BMP280;58242;51.250;-1.118;2022-12-28T04:07:26;99510.56;;;16.26
70668;BMP280;58242;51.250;-1.118;2022-12-28T04:09:52;99515.59;;;16.27
70668;BMP280;58242;51.250;-1.118;2022-12-28T04:12:17;99514.47;;;16.28
70668;BMP280;58242;51.250;-1.118;2022-12-28T04:14:42;99510.59;;;16.29
70668;BMP280;58242;51.250;-1.118;2022-12-28T04:17:08;99507.53;;;16.30
70668;BMP280;58242;51.250;-1.118;2022-12-28T04:19:33;99507.53;;;16.30
70668;BMP280;58242;51.250;-1.118;2022-12-28T04:21:58;99500.97;;;16.28
70668;BMP280;58242;51.250;-1.118;2022-12-28T04:24:24;99500.97;;;16.28
70668;BMP280;58242;51.250;-1.118;2022-12-28T04:26:49;99495.56;;;16.28
70668;BMP280;58242;51.250;-1.118;2022-12-28T04:29:14;99504.41;;;16.28
70668;BMP280;58242;51.250;-1.118;2022-12-28T04:31:39;99497.09;;;16.29
70668;BMP280;58242;51.250;-1.118;2022-12-28T04:34:05;99490.94;;;16.28
70668;BMP280;58242;51.250;-1.118;2022-12-28T04:36:31;99482.84;;;16.28
70668;BMP280;58242;51.250;-1.118;2022-12-28T04:38:57;99484.38;;;16.26
70668;BMP280;58242;51.250;-1.118;2022-12-28T04:41:23;99475.16;;;16.27
70668;BMP280;58242;51.250;-1.118;2022-12-28T04:43:48;99469.34;;;16.25
70668;BMP280;58242;51.250;-1.118;2022-12-28T04:46:15;99470.50;;;16.24
70668;BMP280;58242;51.250;-1.118;2022-12-28T04:48:41;99454.31;;;16.24
70668;BMP280;58242;51.250;-1.118;2022-12-28T04:51:15;99458.94;;;16.24
70668;BMP280;58242;51.250;-1.118;2022-12-28T04:53:41;99458.16;;;16.23
70668;BMP280;58242;51.250;-1.118;2022-12-28T04:56:07;99445.06;;;16.25
70668;BMP280;58242;51.250;-1.118;2022-12-28T04:58:33;99466.63;;;16.25
70668;BMP280;58242;51.250;-1.118;2022-12-28T05:03:28;99450.75;;;16.13
70668;BMP280;58242;51.250;-1.118;2022-12-28T05:05:53;99454.25;;;16.17
70668;BMP280;58242;51.250;-1.118;2022-12-28T05:08:19;99439.63;;;16.18
70668;BMP280;58242;51.250;-1.118;2022-12-28T05:10:44;99441.19;;;16.19
70668;BMP280;58242;51.250;-1.118;2022-12-28T05:13:09;99436.56;;;16.20
70668;BMP280;58242;51.250;-1.118;2022-12-28T05:15:36;99431.56;;;16.22
70668;BMP280;58242;51.250;-1.118;2022-12-28T05:18:02;99432.69;;;16.21
70668;BMP280;58242;51.250;-1.118;2022-12-28T05:20:27;99427.31;;;16.21
70668;BMP280;58242;51.250;-1.118;2022-12-28T05:22:52;99429.25;;;16.20
70668;BMP280;58242;51.250;-1.118;2022-12-28T05:25:18;99421.16;;;16.20
70668;BMP280;58242;51.250;-1.118;2022-12-28T05:27:43;99427.31;;;16.21
70668;BMP280;58242;51.250;-1.118;2022-12-28T05:30:09;99423.47;;;16.22
70668;BMP280;58242;51.250;-1.118;2022-12-28T05:32:34;99424.25;;;16.22
70668;BMP280;58242;51.250;-1.118;2022-12-28T05:34:59;99412.31;;;16.23
70668;BMP280;58242;51.250;-1.118;2022-12-28T05:37:25;99418.09;;;16.25
70668;BMP280;58242;51.250;-1.118;2022-12-28T05:39:51;99412.69;;;16.25
70668;BMP280;58242;51.250;-1.118;2022-12-28T05:42:16;99401.53;;;16.23
70668;BMP280;58242;51.250;-1.118;2022-12-28T05:44:41;99406.91;;;16.23
70668;BMP280;58242;51.250;-1.118;2022-12-28T05:47:06;99405.38;;;16.22
70668;BMP280;58242;51.250;-1.118;2022-12-28T05:49:32;99401.53;;;16.23
70668;BMP280;58242;51.250;-1.118;2022-12-28T05:51:57;99395.72;;;16.21
70668;BMP280;58242;51.250;-1.118;2022-12-28T05:54:22;99388.81;;;16.20
70668;BMP280;58242;51.250;-1.118;2022-12-28T05:56:51;99394.19;;;16.20
70668;BMP280;58242;51.250;-1.118;2022-12-28T05:59:17;99384.13;;;16.17
70668;BMP280;58242;51.250;-1.118;2022-12-28T06:01:42;99384.53;;;16.16
70668;BMP280;58242;51.250;-1.118;2022-12-28T06:04:18;99381.06;;;16.15
70668;BMP280;58242;51.250;-1.118;2022-12-28T06:06:46;99374.09;;;16.14
70668;BMP280;58242;51.250;-1.118;2022-12-28T06:09:12;99374.50;;;16.13
70668;BMP280;58242;51.250;-1.118;2022-12-28T06:11:38;99369.47;;;16.11
70668;BMP280;58242;51.250;-1.118;2022-12-28T06:14:04;99368.31;;;16.09
70668;BMP280;58242;51.250;-1.118;2022-12-28T06:16:35;99362.50;;;16.07
70668;BMP280;58242;51.250;-1.118;2022-12-28T06:19:09;99357.47;;;16.06
70668;BMP280;58242;51.250;-1.118;2022-12-28T06:21:37;99359.78;;;16.04
70668;BMP280;58242;51.250;-1.118;2022-12-28T06:24:03;99347.06;;;16.01
70668;BMP280;58242;51.250;-1.118;2022-12-28T06:26:30;99344.38;;;16.01
70668;BMP280;58242;51.250;-1.118;2022-12-28T06:28:57;99351.69;;;16.00
70668;BMP280;58242;51.250;-1.118;2022-12-28T06:31:27;99341.25;;;15.99
70668;BMP280;58242;51.250;-1.118;2022-12-28T06:33:54;99358.97;;;16.00
70668;BMP280;58242;51.250;-1.118;2022-12-28T06:36:39;99334.34;;;15.98
70668;BMP280;58242;51.250;-1.118;2022-12-28T06:39:06;99346.25;;;15.97
70668;BMP280;58242;51.250;-1.118;2022-12-28T06:41:32;99335.06;;;15.95
70668;BMP280;58242;51.250;-1.118;2022-12-28T06:43:58;99333.53;;;15.94
70668;BMP280;58242;51.250;-1.118;2022-12-28T06:46:25;99330.84;;;15.94
70668;BMP280;58242;51.250;-1.118;2022-12-28T06:48:51;99336.22;;;15.94
70668;BMP280;58242;51.250;-1.118;2022-12-28T06:51:21;99336.97;;;15.94
70668;BMP280;58242;51.250;-1.118;2022-12-28T06:53:48;99332.31;;;15.91
70668;BMP280;58242;51.250;-1.118;2022-12-28T06:56:16;99318.84;;;15.91
70668;BMP280;58242;51.250;-1.118;2022-12-28T06:58:42;99321.53;;;15.91
70668;BMP280;58242;51.250;-1.118;2022-12-28T07:01:18;99318.81;;;15.88
70668;BMP280;58242;51.250;-1.118;2022-12-28T07:03:46;99314.56;;;15.87
70668;BMP280;58242;51.250;-1.118;2022-12-28T07:06:13;99309.16;;;15.84
70668;BMP280;58242;51.250;-1.118;2022-12-28T07:08:40;99306.84;;;15.79
70668;BMP280;58242;51.250;-1.118;2022-12-28T07:11:08;99316.03;;;15.74
70668;BMP280;58242;51.250;-1.118;2022-12-28T07:13:34;99305.97;;;15.68
70668;BMP280;58242;51.250;-1.118;2022-12-28T07:16:08;99301.31;;;15.65
70668;BMP280;58242;51.250;-1.118;2022-12-28T07:18:35;99310.13;;;15.59
70668;BMP280;58242;51.250;-1.118;2022-12-28T07:21:04;99304.72;;;15.56
70668;BMP280;58242;51.250;-1.118;2022-12-28T07:23:30;99301.22;;;15.52
70668;BMP280;58242;51.250;-1.118;2022-12-28T07:25:57;99301.19;;;15.48
70668;BMP280;58242;51.250;-1.118;2022-12-28T07:28:27;99291.16;;;15.45
70668;BMP280;58242;51.250;-1.118;2022-12-28T07:30:52;99286.94;;;15.44
70668;BMP280;58242;51.250;-1.118;2022-12-28T07:33:17;99283.47;;;15.44
70668;BMP280;58242;51.250;-1.118;2022-12-28T07:35:43;99277.63;;;15.39
70668;BMP280;58242;51.250;-1.118;2022-12-28T07:38:08;99278.00;;;15.34
70668;BMP280;58242;51.250;-1.118;2022-12-28T07:40:33;99266.41;;;15.30
70668;BMP280;58242;51.250;-1.118;2022-12-28T07:42:59;99276.38;;;15.26
70668;BMP280;58242;51.250;-1.118;2022-12-28T07:45:24;99267.88;;;15.24
70668;BMP280;58242;51.250;-1.118;2022-12-28T07:47:50;99266.34;;;15.23
70668;BMP280;58242;51.250;-1.118;2022-12-28T07:50:15;99258.63;;;15.18
70668;BMP280;58242;51.250;-1.118;2022-12-28T07:52:40;99256.25;;;15.13
70668;BMP280;58242;51.250;-1.118;2022-12-28T07:55:06;99254.72;;;15.12
70668;BMP280;58242;51.250;-1.118;2022-12-28T07:57:31;99252.41;;;15.11
70668;BMP280;58242;51.250;-1.118;2022-12-28T07:59:58;99245.84;;;15.12
70668;BMP280;58242;51.250;-1.118;2022-12-28T08:02:23;99250.47;;;15.11
70668;BMP280;58242;51.250;-1.118;2022-12-28T08:04:48;99243.16;;;15.12
70668;BMP280;58242;51.250;-1.118;2022-12-28T08:07:14;99237.78;;;15.12
70668;BMP280;58242;51.250;-1.118;2022-12-28T08:09:39;99237.00;;;15.11
70668;BMP280;58242;51.250;-1.118;2022-12-28T08:12:04;99239.69;;;15.11
70668;BMP280;58242;51.250;-1.118;2022-12-28T08:14:30;99225.47;;;15.11
70668;BMP280;58242;51.250;-1.118;2022-12-28T08:16:55;99199.28;;;15.08
70668;BMP280;58242;51.250;-1.118;2022-12-28T08:19:20;99235.41;;;15.04
70668;BMP280;58242;51.250;-1.118;2022-12-28T08:21:46;99233.09;;;15.02
70668;BMP280;58242;51.250;-1.118;2022-12-28T08:24:17;99241.94;;;15.03
70668;BMP280;58242;51.250;-1.118;2022-12-28T08:26:43;99233.47;;;15.04
70668;BMP280;58242;51.250;-1.118;2022-12-28T08:29:14;99234.25;;;15.05
70668;BMP280;58242;51.250;-1.118;2022-12-28T08:31:41;99220.78;;;15.05
70668;BMP280;58242;51.250;-1.118;2022-12-28T08:34:10;99213.88;;;15.04
70668;BMP280;58242;51.250;-1.118;2022-12-28T08:36:36;99211.56;;;15.02
70668;BMP280;58242;51.250;-1.118;2022-12-28T08:39:03;99205.41;;;15.02
70668;BMP280;58242;51.250;-1.118;2022-12-28T08:41:29;99203.47;;;15.02
70668;BMP280;58242;51.250;-1.118;2022-12-28T08:43:55;99185.78;;;15.01
70668;BMP280;58242;51.250;-1.118;2022-12-28T08:46:22;99189.25;;;15.02
70668;BMP280;58242;51.250;-1.118;2022-12-28T08:48:49;99188.47;;;15.01
70668;BMP280;58242;51.250;-1.118;2022-12-28T08:51:21;99189.25;;;15.02
70668;BMP280;58242;51.250;-1.118;2022-12-28T08:53:47;99186.16;;;15.00
70668;BMP280;58242;51.250;-1.118;2022-12-28T08:56:13;99178.09;;;15.00
70668;BMP280;58242;51.250;-1.118;2022-12-28T08:58:40;99184.63;;;14.99
70668;BMP280;58242;51.250;-1.118;2022-12-28T09:01:15;99175.00;;;14.98
70668;BMP280;58242;51.250;-1.118;2022-12-28T09:03:42;99166.88;;;14.94
70668;BMP280;58242;51.250;-1.118;2022-12-28T09:06:11;99159.97;;;14.93
70668;BMP280;58242;51.250;-1.118;2022-12-28T09:08:37;99154.19;;;14.91
70668;BMP280;58242;51.250;-1.118;2022-12-28T09:11:05;99145.69;;;14.89
70668;BMP280;58242;51.250;-1.118;2022-12-28T09:13:31;99146.84;;;14.88
70668;BMP280;58242;51.250;-1.118;2022-12-28T09:15:57;99139.91;;;14.88
70668;BMP280;58242;51.250;-1.118;2022-12-28T09:18:23;99144.47;;;14.84
70668;BMP280;58242;51.250;-1.118;2022-12-28T09:20:48;99122.19;;;14.83
70668;BMP280;58242;51.250;-1.118;2022-12-28T09:23:13;99134.47;;;14.81
70668;BMP280;58242;51.250;-1.118;2022-12-28T09:25:39;99131.72;;;14.77
70668;BMP280;58242;51.250;-1.118;2022-12-28T09:28:04;99143.25;;;14.78
70668;BMP280;58242;51.250;-1.118;2022-12-28T09:30:29;99115.19;;;14.75
70668;BMP280;58242;51.250;-1.118;2022-12-28T09:32:54;99115.19;;;14.75
70668;BMP280;58242;51.250;-1.118;2022-12-28T09:35:40;99121.72;;;14.74
70668;BMP280;58242;51.250;-1.118;2022-12-28T09:38:05;99114.06;;;14.76
70668;BMP280;58242;51.250;-1.118;2022-12-28T09:40:33;99094.06;;;14.77
70668;BMP280;58242;51.250;-1.118;2022-12-28T09:42:58;99094.47;;;14.79
70668;BMP280;58242;51.250;-1.118;2022-12-28T09:45:24;99075.22;;;14.77
70668;BMP280;58242;51.250;-1.118;2022-12-28T09:47:52;99089.88;;;14.80
70668;BMP280;58242;51.250;-1.118;2022-12-28T09:55:31;99077.59;;;14.82
70668;BMP280;58242;51.250;-1.118;2022-12-28T09:57:58;99076.81;;;14.82
70668;BMP280;58242;51.250;-1.118;2022-12-28T10:00:45;99080.69;;;14.84
70668;BMP280;58242;51.250;-1.118;2022-12-28T10:03:26;99071.09;;;14.87
70668;BMP280;58242;51.250;-1.118;2022-12-28T10:05:56;99072.25;;;14.89
70668;BMP280;58242;51.250;-1.118;2022-12-28T10:08:23;99062.28;;;14.89
70668;BMP280;58242;51.250;-1.118;2022-12-28T10:10:50;99061.94;;;14.91
70668;BMP280;58242;51.250;-1.118;2022-12-28T10:15:46;99038.88;;;14.93
70668;BMP280;58242;51.250;-1.118;2022-12-28T10:18:17;99038.13;;;14.96
70668;BMP280;58242;51.250;-1.118;2022-12-28T10:20:43;99036.59;;;14.95
70668;BMP280;58242;51.250;-1.118;2022-12-28T10:23:17;99022.75;;;14.97
70668;BMP280;58242;51.250;-1.118;2022-12-28T10:25:43;99014.66;;;14.97
70668;BMP280;58242;51.250;-1.118;2022-12-28T10:28:10;98991.22;;;14.97
70668;BMP280;58242;51.250;-1.118;2022-12-28T10:31:02;98994.69;;;14.98
70668;BMP280;58242;51.250;-1.118;2022-12-28T10:33:28;98988.94;;;14.96
70668;BMP280;58242;51.250;-1.118;2022-12-28T10:35:54;98984.28;;;14.96
70668;BMP280;58242;51.250;-1.118;2022-12-28T10:38:29;98981.25;;;14.98
70668;BMP280;58242;51.250;-1.118;2022-12-28T10:41:07;98975.50;;;14.99
70668;BMP280;58242;51.250;-1.118;2022-12-28T10:43:36;98968.94;;;15.00
70668;BMP280;58242;51.250;-1.118;2022-12-28T10:46:05;98940.13;;;15.01
70668;BMP280;58242;51.250;-1.118;2022-12-28T10:48:34;98952.44;;;15.02
70668;BMP280;58242;51.250;-1.118;2022-12-28T10:51:20;98946.69;;;15.03
70668;BMP280;58242;51.250;-1.118;2022-12-28T10:53:51;98937.06;;;15.06
70668;BMP280;58242;51.250;-1.118;2022-12-28T10:56:27;98944.38;;;15.05
70668;BMP280;58242;51.250;-1.118;2022-12-28T10:59:16;98923.19;;;15.00
70668;BMP280;58242;51.250;-1.118;2022-12-28T11:01:41;98911.28;;;14.98
70668;BMP280;58242;51.250;-1.118;2022-12-28T11:04:18;98923.97;;;14.97
70668;BMP280;58242;51.250;-1.118;2022-12-28T11:06:54;98910.91;;;14.96
70668;BMP280;58242;51.250;-1.118;2022-12-28T11:11:46;98870.91;;;14.91
70668;BMP280;58242;51.250;-1.118;2022-12-28T11:14:23;98874.31;;;14.88
70668;BMP280;58242;51.250;-1.118;2022-12-28T11:16:49;98862.78;;;14.84
70668;BMP280;58242;51.250;-1.118;2022-12-28T11:19:15;98856.22;;;14.85
70668;BMP280;58242;51.250;-1.118;2022-12-28T11:21:42;98846.25;;;14.86
70668;BMP280;58242;51.250;-1.118;2022-12-28T11:24:15;98851.25;;;14.87
70668;BMP280;58242;51.250;-1.118;2022-12-28T11:26:50;98842.78;;;14.85
70668;BMP280;58242;51.250;-1.118;2022-12-28T11:29:16;98814.72;;;14.83
70668;BMP280;58242;51.250;-1.118;2022-12-28T11:31:51;98808.19;;;14.80
70668;BMP280;58242;51.250;-1.118;2022-12-28T11:34:21;98791.28;;;14.76
70668;BMP280;58242;51.250;-1.118;2022-12-28T11:36:47;98782.78;;;14.74
70668;BMP280;58242;51.250;-1.118;2022-12-28T11:41:58;98790.09;;;14.77
70668;BMP280;58242;51.250;-1.118;2022-12-28T11:46:59;98758.59;;;14.81
70668;BMP280;58242;51.250;-1.118;2022-12-28T11:49:27;98732.47;;;14.82
70668;BMP280;58242;51.250;-1.118;2022-12-28T11:52:31;98724.03;;;14.83
70668;BMP280;58242;51.250;-1.118;2022-12-28T11:55:01;98717.50;;;14.84
70668;BMP280;58242;51.250;-1.118;2022-12-28T11:57:38;98702.16;;;14.85
70668;BMP280;58242;51.250;-1.118;2022-12-28T12:10:42;98644.91;;;14.91
70668;BMP280;58242;51.250;-1.118;2022-12-28T12:15:51;98612.63;;;14.94
70668;BMP280;58242;51.250;-1.118;2022-12-28T12:18:24;98620.31;;;14.96
70668;BMP280;58242;51.250;-1.118;2022-12-28T12:25:59;98603.41;;;14.99
70668;BMP280;58242;51.250;-1.118;2022-12-28T12:28:34;98574.56;;;14.99
70668;BMP280;58242;51.250;-1.118;2022-12-28T12:31:09;98544.97;;;15.03
70668;BMP280;58242;51.250;-1.118;2022-12-28T12:33:40;98542.66;;;15.05
70668;BMP280;58242;51.250;-1.118;2022-12-28T12:39:16;98538.81;;;15.06
70668;BMP280;58242;51.250;-1.118;2022-12-28T12:42:07;98511.13;;;15.05
70668;BMP280;58242;51.250;-1.118;2022-12-28T12:55:16;98456.53;;;15.15
70668;BMP280;58242;51.250;-1.118;2022-12-28T12:58:00;98461.50;;;15.16
70668;BMP280;58242;51.250;-1.118;2022-12-28T13:00:52;98464.59;;;15.18
70668;BMP280;58242;51.250;-1.118;2022-12-28T13:03:30;98459.97;;;15.19
70668;BMP280;58242;51.250;-1.118;2022-12-28T13:05:58;98466.09;;;15.19
70668;BMP280;58242;51.250;-1.118;2022-12-28T13:10:58;98429.56;;;15.25
70668;BMP280;58242;51.250;-1.118;2022-12-28T13:13:35;98423.03;;;15.26
70668;BMP280;58242;51.250;-1.118;2022-12-28T13:16:07;98428.41;;;15.29
70668;BMP280;58242;51.250;-1.118;2022-12-28T13:18:32;98413.41;;;15.28
70668;BMP280;58242;51.250;-1.118;2022-12-28T13:21:00;98408.38;;;15.30
70668;BMP280;58242;51.250;-1.118;2022-12-28T13:23:30;98394.16;;;15.33
70668;BMP280;58242;51.250;-1.118;2022-12-28T13:26:00;98404.91;;;15.37
70668;BMP280;58242;51.250;-1.118;2022-12-28T13:28:31;98409.88;;;15.38
70668;BMP280;58242;51.250;-1.118;2022-12-28T13:33:26;98396.41;;;15.38
70668;BMP280;58242;51.250;-1.118;2022-12-28T13:38:35;98385.63;;;15.41
70668;BMP280;58242;51.250;-1.118;2022-12-28T13:41:01;98367.53;;;15.45
70668;BMP280;58242;51.250;-1.118;2022-12-28T13:46:14;98388.66;;;15.50
70668;BMP280;58242;51.250;-1.118;2022-12-28T13:48:44;98363.25;;;15.55
70668;BMP280;58242;51.250;-1.118;2022-12-28T13:51:13;98374.75;;;15.58
70668;BMP280;58242;51.250;-1.118;2022-12-28T13:53:43;98364.72;;;15.62
70668;BMP280;58242;51.250;-1.118;2022-12-28T13:56:11;98356.63;;;15.66
70668;BMP280;58242;51.250;-1.118;2022-12-28T13:58:41;98346.25;;;15.68
70668;BMP280;58242;51.250;-1.118;2022-12-28T14:01:14;98323.13;;;15.70
70668;BMP280;58242;51.250;-1.118;2022-12-28T14:03:41;98345.03;;;15.72
70668;BMP280;58242;51.250;-1.118;2022-12-28T14:06:07;98333.88;;;15.74
70668;BMP280;58242;51.250;-1.118;2022-12-28T14:08:35;98337.31;;;15.77
70668;BMP280;58242;51.250;-1.118;2022-12-28T14:11:02;98327.25;;;15.81
70668;BMP280;58242;51.250;-1.118;2022-12-28T14:13:30;98334.16;;;15.86
70668;BMP280;58242;51.250;-1.118;2022-12-28T14:15:57;98323.72;;;15.91
70668;BMP280;58242;51.250;-1.118;2022-12-28T14:18:23;98319.09;;;15.95
70668;BMP280;58242;51.250;-1.118;2022-12-28T14:20:51;98324.44;;;15.98
70668;BMP280;58242;51.250;-1.118;2022-12-28T14:25:45;98325.94;;;16.03
70668;BMP280;58242;51.250;-1.118;2022-12-28T14:28:33;98324.78;;;16.04
70668;BMP280;58242;51.250;-1.118;2022-12-28T14:30:59;98327.47;;;16.04
70668;BMP280;58242;51.250;-1.118;2022-12-28T14:33:28;98328.22;;;16.08
70668;BMP280;58242;51.250;-1.118;2022-12-28T14:35:59;98321.28;;;16.07
70668;BMP280;58242;51.250;-1.118;2022-12-28T14:38:34;98330.53;;;16.09
70668;BMP280;58242;51.250;-1.118;2022-12-28T14:41:03;98332.03;;;16.10
70668;BMP280;58242;51.250;-1.118;2022-12-28T14:43:31;98329.34;;;16.10
70668;BMP280;58242;51.250;-1.118;2022-12-28T14:46:13;98328.19;;;16.11
70668;BMP280;58242;51.250;-1.118;2022-12-28T14:48:38;98343.56;;;16.14
70668;BMP280;58242;51.250;-1.118;2022-12-28T14:51:29;98338.16;;;16.14
70668;BMP280;58242;51.250;-1.118;2022-12-28T14:54:47;98338.53;;;16.16
70668;BMP280;58242;51.250;-1.118;2022-12-28T14:57:17;98348.16;;;16.17
70668;BMP280;58242;51.250;-1.118;2022-12-28T14:59:44;98322.34;;;16.19
70668;BMP280;58242;51.250;-1.118;2022-12-28T15:02:38;98325.38;;;16.21
70668;BMP280;58242;51.250;-1.118;2022-12-28T15:08:06;98350.78;;;16.24
70668;BMP280;58242;51.250;-1.118;2022-12-28T15:10:35;98329.22;;;16.24
70668;BMP280;58242;51.250;-1.118;2022-12-28T15:13:02;98329.63;;;16.22
70668;BMP280;58242;51.250;-1.118;2022-12-28T15:15:28;98309.22;;;16.21
70668;BMP280;58242;51.250;-1.118;2022-12-28T15:17:53;98314.25;;;16.19
70668;BMP280;58242;51.250;-1.118;2022-12-28T15:20:18;98293.50;;;16.16
70668;BMP280;58242;51.250;-1.118;2022-12-28T15:22:46;98302.72;;;16.15
70668;BMP280;58242;51.250;-1.118;2022-12-28T15:25:12;98295.06;;;16.10
70668;BMP280;58242;51.250;-1.118;2022-12-28T15:27:37;98304.72;;;16.08
70668;BMP280;58242;51.250;-1.118;2022-12-28T15:30:03;98290.53;;;16.04
70668;BMP280;58242;51.250;-1.118;2022-12-28T15:32:29;98297.09;;;16.00
70668;BMP280;58242;51.250;-1.118;2022-12-28T15:34:54;98307.53;;;15.98
70668;BMP280;58242;51.250;-1.118;2022-12-28T15:37:19;98307.53;;;15.98
70668;BMP280;58242;51.250;-1.118;2022-12-28T15:39:45;98312.19;;;15.94
70668;BMP280;58242;51.250;-1.118;2022-12-28T15:42:10;98325.63;;;15.91
70668;BMP280;58242;51.250;-1.118;2022-12-28T15:44:35;98319.91;;;15.85
70668;BMP280;58242;51.250;-1.118;2022-12-28T15:47:00;98323.03;;;15.80